Time;durP1;ratioP1;P1;durP2;ratioP2;P2;SDS_P1;SDS_P2;PMS_P1;PMS_P2;Temp;Humidity;BMP_temperature;BMP_pressure;BME280_temperature;BME280_humidity;BME280_pressure;Samples;Min_cycle;Max_cycle;Signal;HPM_P1;HPM_P2
2023/07/13 00:02:07;;;;;;;1999.90;999.90;;;;;;;22.72;100.00;97650.91;5092660;28;20110;-75
2023/07/13 00:04:33;;;;;;;1999.90;999.90;;;;;;;22.74;100.00;97642.16;5092340;28;20051;-74
2023/07/13 00:06:58;;;;;;;1999.90;999.90;;;;;;;22.76;100.00;97637.00;5092324;28;20024;-76
2023/07/13 00:09:24;;;;;;;1999.90;999.90;;;;;;;22.75;100.00;97643.75;5092452;28;20435;-74
2023/07/13 00:11:56;;;;;;;1999.90;999.90;;;;;;;22.78;100.00;97649.38;5091071;28;20062;-73
2023/07/13 00:14:22;;;;;;;1999.90;999.90;;;;;;;22.83;100.00;97645.44;5090815;28;20079;-73
2023/07/13 00:16:48;;;;;;;1999.90;999.90;;;;;;;22.83;100.00;97628.72;5092488;28;20466;-74
2023/07/13 00:19:13;;;;;;;1999.90;999.90;;;;;;;22.71;100.00;97610.25;5091561;28;20064;-75
2023/07/13 00:21:40;;;;;;;1999.90;999.90;;;;;;;22.77;100.00;97602.34;5092118;28;20032;-74
2023/07/13 00:24:07;;;;;;;1999.90;999.90;;;;;;;22.71;100.00;97601.09;5091934;28;20377;-74
2023/07/13 00:26:32;;;;;;;1999.90;999.90;;;;;;;22.70;100.00;97602.28;5092027;28;20396;-76
2023/07/13 00:28:58;;;;;;;1999.90;999.90;;;;;;;22.60;100.00;97581.44;5091796;28;20073;-74
2023/07/13 00:31:24;;;;;;;1999.90;999.90;;;;;;;22.52;100.00;97573.38;5091669;28;20055;-76
2023/07/13 00:33:49;;;;;;;1999.90;999.90;;;;;;;22.46;100.00;97572.13;5090728;28;20058;-74
2023/07/13 00:36:15;;;;;;;1999.90;999.90;;;;;;;22.30;100.00;97580.72;5092942;28;20066;-76
2023/07/13 00:38:40;;;;;;;1999.90;999.90;;;;;;;22.33;100.00;97599.47;5097573;28;20063;-76
2023/07/13 00:41:06;;;;;;;1999.90;999.90;;;;;;;22.39;100.00;97612.69;5092187;28;20115;-74
2023/07/13 00:43:31;;;;;;;1999.90;999.90;;;;;;;22.47;100.00;97623.91;5091642;28;20426;-74
2023/07/13 00:46:20;;;;;;;1999.90;999.90;;;;;;;22.53;100.00;97612.03;5091950;28;20468;-77
2023/07/13 00:48:48;;;;;;;1999.90;999.90;;;;;;;22.60;100.00;97609.31;5091451;28;20016;-73
2023/07/13 00:51:17;;;;;;;1999.90;999.90;;;;;;;22.61;100.00;97607.34;5090212;28;20126;-75
2023/07/13 00:53:43;;;;;;;1999.90;999.90;;;;;;;22.71;100.00;97610.25;5091241;28;20542;-75
2023/07/13 00:56:09;;;;;;;1999.90;999.90;;;;;;;22.85;100.00;97604.81;5090171;28;20020;-75
2023/07/13 00:58:35;;;;;;;1999.90;999.90;;;;;;;22.87;100.00;97629.53;5091326;28;20034;-75
2023/07/13 01:01:00;;;;;;;1999.90;999.90;;;;;;;22.89;100.00;97638.34;5091534;28;20065;-75
2023/07/13 01:03:26;;;;;;;1999.90;999.90;;;;;;;22.93;100.00;97644.72;5091473;28;20032;-73
2023/07/13 01:05:53;;;;;;;1999.90;999.90;;;;;;;22.88;100.00;97653.47;5097263;28;20030;-76
2023/07/13 01:08:20;;;;;;;1999.90;999.90;;;;;;;22.89;100.00;97711.69;5091502;28;20444;-73
2023/07/13 01:10:53;;;;;;;1999.90;999.90;;;;;;;22.79;100.00;97787.69;5090955;28;20127;-75
2023/07/13 01:13:19;;;;;;;1999.90;999.90;;;;;;;22.75;100.00;97789.59;5091011;28;20040;-74
2023/07/13 01:15:47;;;;;;;1999.90;999.90;;;;;;;22.55;100.00;97765.03;5091717;28;20077;-74
2023/07/13 01:18:22;;;;;;;1999.90;999.90;;;;;;;22.16;100.00;97786.75;5091189;28;20019;-74
2023/07/13 01:20:51;;;;;;;1999.90;999.90;;;;;;;21.60;100.00;97783.84;5091858;28;20032;-73
2023/07/13 01:23:16;;;;;;;1999.90;999.90;;;;;;;21.04;100.00;97770.47;5090653;28;20103;-73
2023/07/13 01:25:42;;;;;;;1999.90;999.90;;;;;;;20.57;100.00;97786.59;5089599;28;20131;-74
2023/07/13 01:28:08;;;;;;;1999.90;999.90;;;;;;;20.26;100.00;97802.19;5090600;28;20350;-75
2023/07/13 01:30:35;;;;;;;1999.90;999.90;;;;;;;19.92;100.00;97846.56;5090868;28;20415;-74
2023/07/13 01:33:03;;;;;;;1999.90;999.90;;;;;;;19.76;100.00;97902.91;5090255;28;20056;-75
2023/07/13 01:35:29;;;;;;;1999.90;999.90;;;;;;;19.37;100.00;97884.34;5089263;28;20012;-74
2023/07/13 01:37:54;;;;;;;1999.90;999.90;;;;;;;19.38;100.00;97868.50;5089871;28;20061;-74
2023/07/13 01:40:20;;;;;;;1999.90;999.90;;;;;;;19.23;100.00;97818.16;5088599;28;20409;-75
2023/07/13 01:42:46;;;;;;;1999.90;999.90;;;;;;;19.27;100.00;97835.72;5088767;28;20070;-76
2023/07/13 01:45:11;;;;;;;1999.90;999.90;;;;;;;19.01;100.00;97804.91;5089490;28;20431;-73
2023/07/13 01:47:36;;;;;;;1999.90;999.90;;;;;;;18.88;100.00;97817.19;5091049;28;20016;-75
2023/07/13 01:50:02;;;;;;;1999.90;999.90;;;;;;;18.75;100.00;97818.41;5089639;28;20053;-74
2023/07/13 01:52:28;;;;;;;1999.90;999.90;;;;;;;18.68;100.00;97809.88;5089554;28;20024;-76
2023/07/13 01:54:53;;;;;;;1999.90;999.90;;;;;;;18.65;100.00;97799.50;5091666;28;20544;-75
2023/07/13 01:57:19;;;;;;;1999.90;999.90;;;;;;;18.51;100.00;97796.31;5096582;28;20122;-74
2023/07/13 01:59:44;;;;;;;1999.90;999.90;;;;;;;18.38;100.00;97773.34;5095190;28;20405;-74
2023/07/13 02:02:09;;;;;;;1999.90;999.90;;;;;;;18.35;100.00;97770.47;5094606;28;20480;-74
2023/07/13 02:04:36;;;;;;;1999.90;999.90;;;;;;;18.40;100.00;97768.25;5093074;28;20024;-74
2023/07/13 02:07:01;;;;;;;1999.90;999.90;;;;;;;18.44;100.00;97771.16;5091919;28;20028;-73
2023/07/13 02:09:27;;;;;;;1999.90;999.90;;;;;;;18.39;100.00;97786.03;5090372;28;20039;-75
2023/07/13 02:11:52;;;;;;;1999.90;999.90;;;;;;;18.44;100.00;97816.28;5090435;28;20092;-74
2023/07/13 02:14:17;;;;;;;1999.90;999.90;;;;;;;18.45;100.00;97820.63;5090007;28;20123;-73
2023/07/13 02:16:43;;;;;;;1999.90;999.90;;;;;;;18.51;100.00;97846.97;5090842;28;20024;-76
2023/07/13 02:19:08;;;;;;;1999.90;999.90;;;;;;;18.49;100.00;97852.06;5090286;28;20032;-74
2023/07/13 02:21:34;;;;;;;1999.90;999.90;;;;;;;18.44;100.00;97827.34;5090441;28;20473;-74
2023/07/13 02:24:02;;;;;;;1999.90;999.90;;;;;;;18.33;100.00;97855.84;5089980;28;20039;-76
2023/07/13 02:26:27;;;;;;;1999.90;999.90;;;;;;;18.28;100.00;97878.25;5090301;28;20025;-76
2023/07/13 02:28:53;;;;;;;1999.90;999.90;;;;;;;18.11;100.00;97877.34;5090082;28;20489;-76
2023/07/13 02:31:19;;;;;;;1999.90;999.90;;;;;;;18.14;100.00;97918.19;5090062;28;20481;-74
2023/07/13 02:33:44;;;;;;;1999.90;999.90;;;;;;;18.18;100.00;97937.69;5089044;28;20527;-74
2023/07/13 02:36:10;;;;;;;1999.90;999.90;;;;;;;18.20;100.00;97941.72;5088868;28;20023;-75
2023/07/13 02:38:36;;;;;;;1999.90;999.90;;;;;;;18.31;100.00;97919.13;5090056;28;20032;-73
2023/07/13 02:41:03;;;;;;;1999.90;999.90;;;;;;;18.23;100.00;97865.44;5090348;28;22109;-74
2023/07/13 02:43:29;;;;;;;1999.90;999.90;;;;;;;18.22;100.00;97785.50;5090358;28;20016;-75
2023/07/13 02:45:55;;;;;;;1999.90;999.90;;;;;;;18.08;100.00;97789.44;5090966;28;20024;-75
2023/07/13 02:48:20;;;;;;;1999.90;999.90;;;;;;;18.04;100.00;97774.69;5093719;28;20074;-76
2023/07/13 02:50:45;;;;;;;1999.90;999.90;;;;;;;17.97;100.00;97755.09;5096724;28;20152;-73
2023/07/13 02:53:11;;;;;;;1999.90;999.90;;;;;;;17.95;100.00;97760.16;5092509;28;20175;-74
2023/07/13 02:55:36;;;;;;;1999.90;999.90;;;;;;;17.96;100.00;97783.94;5093614;28;20090;-75
2023/07/13 02:58:02;;;;;;;1999.90;999.90;;;;;;;17.85;100.00;97809.66;5093678;28;20036;-76
2023/07/13 03:00:27;;;;;;;1999.90;999.90;;;;;;;17.77;100.00;97805.84;5093786;28;20024;-74
2023/07/13 03:02:53;;;;;;;1999.90;999.90;;;;;;;17.63;100.00;97788.78;5093450;28;20459;-75
2023/07/13 03:05:18;;;;;;;1999.90;999.90;;;;;;;17.60;100.00;97778.41;5093584;28;20028;-76
2023/07/13 03:07:44;;;;;;;1999.90;999.90;;;;;;;17.64;100.00;97757.19;5093378;28;20020;-75
2023/07/13 03:10:09;;;;;;;1999.90;999.90;;;;;;;17.45;100.00;97732.03;5093194;28;20036;-75
2023/07/13 03:12:35;;;;;;;1999.90;999.90;;;;;;;17.43;100.00;97728.81;5093682;28;20081;-76
2023/07/13 03:15:00;;;;;;;1999.90;999.90;;;;;;;17.51;100.00;97742.50;5092191;28;20016;-74
2023/07/13 03:17:25;;;;;;;1999.90;999.90;;;;;;;17.52;100.00;97757.16;5093702;28;20074;-73
2023/07/13 03:19:51;;;;;;;1999.90;999.90;;;;;;;17.54;100.00;97752.09;5091968;28;20020;-73
2023/07/13 03:22:18;;;;;;;1999.90;999.90;;;;;;;17.54;100.00;97746.56;5093057;28;20107;-74
2023/07/13 03:24:44;;;;;;;1999.90;999.90;;;;;;;17.50;100.00;97740.09;5093306;28;20039;-75
2023/07/13 03:27:09;;;;;;;1999.90;999.90;;;;;;;17.60;100.00;97742.44;5093274;28;20024;-75
2023/07/13 03:29:35;;;;;;;1999.90;999.90;;;;;;;17.41;100.00;97736.66;5092925;28;20052;-73
2023/07/13 03:32:00;;;;;;;1999.90;999.90;;;;;;;17.38;100.00;97720.75;5092898;28;20039;-75
2023/07/13 03:34:26;;;;;;;1999.90;999.90;;;;;;;17.48;100.00;97723.84;5092987;28;20051;-74
2023/07/13 03:36:54;;;;;;;1999.90;999.90;;;;;;;17.49;100.00;97721.88;5092845;28;20457;-74
2023/07/13 03:39:20;;;;;;;1999.90;999.90;;;;;;;17.52;100.00;97713.72;5093060;28;20103;-74
2023/07/13 03:41:45;;;;;;;1999.90;999.90;;;;;;;17.56;100.00;97728.50;5093235;28;20111;-75
2023/07/13 03:44:11;;;;;;;1999.90;999.90;;;;;;;17.69;100.00;97729.31;5091845;28;20020;-76
2023/07/13 03:46:36;;;;;;;1999.90;999.90;;;;;;;17.67;100.00;97737.13;5091792;28;20073;-76
2023/07/13 03:49:03;;;;;;;1999.90;999.90;;;;;;;17.72;100.00;97742.44;5092631;28;20020;-75
2023/07/13 03:51:29;;;;;;;1999.90;999.90;;;;;;;17.73;100.00;97732.97;5092396;28;20469;-74
2023/07/13 03:53:54;;;;;;;1999.90;999.90;;;;;;;17.86;100.00;97745.66;5091302;28;20039;-75
2023/07/13 03:56:19;;;;;;;1999.90;999.90;;;;;;;17.95;100.00;97749.09;5092636;28;20089;-75
2023/07/13 03:58:47;;;;;;;1999.90;999.90;;;;;;;18.27;100.00;97754.78;5092428;28;20560;-76
2023/07/13 04:01:13;;;;;;;1999.90;999.90;;;;;;;18.31;100.00;97753.75;5091698;28;20579;-75
2023/07/13 04:03:39;;;;;;;1999.90;999.90;;;;;;;18.24;100.00;97741.66;5091048;28;20028;-74
2023/07/13 04:06:06;;;;;;;1999.90;999.90;;;;;;;18.28;100.00;97756.41;5092190;28;20529;-76
2023/07/13 04:08:36;;;;;;;1999.90;999.90;;;;;;;18.32;100.00;97754.56;5092254;28;20103;-74
2023/07/13 04:11:03;;;;;;;1999.90;999.90;;;;;;;18.17;100.00;97753.31;5091987;28;20077;-73
2023/07/13 04:13:29;;;;;;;1999.90;999.90;;;;;;;18.01;100.00;97750.47;5092203;28;20024;-74
2023/07/13 04:15:55;;;;;;;1999.90;999.90;;;;;;;18.05;100.00;97758.88;5092219;28;20520;-74
2023/07/13 04:18:21;;;;;;;1999.90;999.90;;;;;;;18.05;100.00;97762.47;5092189;28;20106;-73
2023/07/13 04:20:47;;;;;;;1999.90;999.90;;;;;;;17.99;100.00;97766.63;5091815;28;20028;-73
2023/07/13 04:23:13;;;;;;;1999.90;999.90;;;;;;;18.18;100.00;97772.34;5085818;28;20018;-73
2023/07/13 04:25:38;;;;;;;1999.90;999.90;;;;;;;18.29;100.00;97771.88;5079527;28;20036;-73
2023/07/13 04:28:04;;;;;;;1999.90;999.90;;;;;;;18.29;100.00;97766.34;5071189;28;20444;-73
2023/07/13 04:30:29;;;;;;;1999.90;999.90;;;;;;;18.47;100.00;97771.25;5092784;28;20079;-73
2023/07/13 04:32:55;;;;;;;1999.90;999.90;;;;;;;18.76;100.00;97775.69;5092722;28;20036;-74
2023/07/13 04:35:20;;;;;;;1999.90;999.90;;;;;;;18.96;100.00;97785.72;5089816;28;20016;-73
2023/07/13 04:37:47;;;;;;;1999.90;999.90;;;;;;;19.24;100.00;97785.69;5091364;28;20035;-74
2023/07/13 04:40:12;;;;;;;1999.90;999.90;;;;;;;19.42;100.00;97783.44;5091450;28;20050;-74
2023/07/13 04:42:38;;;;;;;1999.90;999.90;;;;;;;19.61;100.00;97789.06;5072506;28;20485;-74
2023/07/13 04:45:06;;;;;;;1999.90;999.90;;;;;;;19.74;100.00;97776.69;5071059;28;20168;-73
2023/07/13 04:47:31;;;;;;;1999.90;999.90;;;;;;;19.67;100.00;97790.41;5071142;28;20017;-74
2023/07/13 04:49:57;;;;;;;1999.90;999.90;;;;;;;19.62;100.00;97790.66;5070658;28;20039;-73
2023/07/13 04:52:23;;;;;;;1999.90;999.90;;;;;;;19.69;100.00;97796.41;5070993;28;20025;-74
2023/07/13 04:54:48;;;;;;;1999.90;999.90;;;;;;;19.50;100.00;97799.09;5070626;28;20024;-73
2023/07/13 04:57:13;;;;;;;1999.90;999.90;;;;;;;19.57;100.00;97794.53;5071308;28;20045;-73
2023/07/13 04:59:39;;;;;;;1999.90;999.90;;;;;;;19.61;100.00;97791.81;5074112;28;20078;-72
2023/07/13 05:02:04;;;;;;;1999.90;999.90;;;;;;;19.59;100.00;97808.03;5092497;28;20051;-73
2023/07/13 05:04:30;;;;;;;1999.90;999.90;;;;;;;19.64;100.00;97805.03;5092612;28;20049;-74
2023/07/13 05:06:55;;;;;;;1999.90;999.90;;;;;;;19.55;100.00;97809.91;5093452;28;20027;-72
2023/07/13 05:09:20;;;;;;;1999.90;999.90;;;;;;;19.53;100.00;97815.03;5097417;28;20042;-71
2023/07/13 05:11:46;;;;;;;1999.90;999.90;;;;;;;19.52;100.00;97827.28;5093636;28;20024;-73
2023/07/13 05:14:11;;;;;;;1999.90;999.90;;;;;;;19.46;100.00;97812.06;5091969;28;20435;-72
2023/07/13 05:16:36;;;;;;;1999.90;999.90;;;;;;;19.41;100.00;97809.56;5090938;28;20020;-70
2023/07/13 05:19:02;;;;;;;1999.90;999.90;;;;;;;19.48;100.00;97806.97;5084498;28;20035;-72
2023/07/13 05:21:28;;;;;;;1999.90;999.90;;;;;;;19.52;100.00;97819.75;5090544;28;20028;-73
2023/07/13 05:23:53;;;;;;;1999.90;999.90;;;;;;;19.52;100.00;97805.06;5090699;28;20098;-73
2023/07/13 05:26:20;;;;;;;1999.90;999.90;;;;;;;19.67;100.00;97812.63;5090254;28;20028;-74
2023/07/13 05:28:46;;;;;;;1999.90;999.90;;;;;;;19.83;100.00;97812.63;5089742;28;20048;-73
2023/07/13 05:31:13;;;;;;;1999.90;999.90;;;;;;;19.82;100.00;97820.16;5090423;28;20047;-73
2023/07/13 05:33:39;;;;;;;1999.90;999.90;;;;;;;19.89;100.00;97811.19;5089771;28;20385;-74
2023/07/13 05:36:05;;;;;;;1999.90;999.90;;;;;;;19.71;100.00;97811.53;5090893;28;20138;-75
2023/07/13 05:38:30;;;;;;;1999.90;999.90;;;;;;;19.72;100.00;97815.13;5089017;28;20540;-75
2023/07/13 05:40:57;;;;;;;1999.90;999.90;;;;;;;19.71;100.00;97805.19;5090295;28;20036;-74
2023/07/13 05:43:23;;;;;;;1999.90;999.90;;;;;;;19.62;100.00;97805.38;5090396;28;20051;-74
2023/07/13 05:45:49;;;;;;;1999.90;999.90;;;;;;;19.70;100.00;97814.69;5090621;28;20059;-75
2023/07/13 05:48:15;;;;;;;1999.90;999.90;;;;;;;19.87;100.00;97816.28;5090276;28;20020;-74
2023/07/13 05:50:40;;;;;;;1999.90;999.90;;;;;;;19.98;100.00;97823.72;5090242;28;20077;-75
2023/07/13 05:53:06;;;;;;;1999.90;999.90;;;;;;;20.34;100.00;97827.34;5088820;28;20051;-74
2023/07/13 05:55:31;;;;;;;1999.90;999.90;;;;;;;20.70;100.00;97825.00;5089020;28;20023;-74
2023/07/13 05:57:59;;;;;;;1999.90;999.90;;;;;;;21.04;100.00;97830.84;5088873;28;20028;-74
2023/07/13 06:00:25;;;;;;;1999.90;999.90;;;;;;;21.35;100.00;97828.72;5090302;28;20032;-75
2023/07/13 06:02:50;;;;;;;1999.90;999.90;;;;;;;21.42;100.00;97839.19;5090522;28;20081;-76
2023/07/13 06:05:16;;;;;;;1999.90;999.90;;;;;;;21.13;100.00;97831.47;5090369;28;20024;-75
2023/07/13 06:07:41;;;;;;;1999.90;999.90;;;;;;;21.04;100.00;97837.22;5090288;28;20051;-75
2023/07/13 06:10:07;;;;;;;1999.90;999.90;;;;;;;21.48;100.00;97825.78;5090105;28;20032;-76
2023/07/13 06:12:32;;;;;;;1999.90;999.90;;;;;;;21.63;100.00;97834.00;5090516;28;20042;-76
2023/07/13 06:14:58;;;;;;;1999.90;999.90;;;;;;;21.73;100.00;97824.25;5095931;28;20051;-76
2023/07/13 06:17:23;;;;;;;1999.90;999.90;;;;;;;21.82;100.00;97828.38;5090597;28;20117;-76
2023/07/13 06:19:49;;;;;;;1999.90;999.90;;;;;;;21.64;100.00;97834.81;5089000;28;20465;-76
2023/07/13 06:22:14;;;;;;;1999.90;999.90;;;;;;;21.82;100.00;97833.16;5088964;28;20111;-76
2023/07/13 06:24:39;;;;;;;1999.90;999.90;;;;;;;21.98;100.00;97839.44;5093691;28;20032;-76
2023/07/13 06:27:05;;;;;;;1999.90;999.90;;;;;;;22.25;100.00;97826.31;5094084;28;20024;-78
2023/07/13 06:29:31;;;;;;;1999.90;999.90;;;;;;;22.22;100.00;97855.75;5094235;28;20040;-74
2023/07/13 06:31:56;;;;;;;1999.90;999.90;;;;;;;22.18;100.00;97843.72;5094124;28;20024;-75
2023/07/13 06:34:22;;;;;;;1999.90;999.90;;;;;;;22.22;100.00;97847.38;5094066;28;20570;-74
2023/07/13 06:36:47;;;;;;;1999.90;999.90;;;;;;;22.07;100.00;97853.91;5094150;28;20070;-76
2023/07/13 06:39:12;;;;;;;1999.90;999.90;;;;;;;22.47;100.00;97858.09;5093894;28;20121;-76
2023/07/13 06:41:38;;;;;;;1999.90;999.90;;;;;;;22.45;100.00;97840.94;5092453;28;20420;-75
2023/07/13 06:44:04;;;;;;;1999.90;999.90;;;;;;;22.90;100.00;97841.59;5092621;28;20392;-74
2023/07/13 06:46:30;;;;;;;1999.90;999.90;;;;;;;23.42;100.00;97846.28;5092561;28;20088;-77
2023/07/13 06:48:55;;;;;;;1999.90;999.90;;;;;;;23.61;100.00;97844.47;5093854;28;20028;-75
2023/07/13 06:51:21;;;;;;;1999.90;999.90;;;;;;;24.03;100.00;97830.88;5092513;28;20032;-76
2023/07/13 06:53:46;;;;;;;1999.90;999.90;;;;;;;24.18;100.00;97838.25;5093953;28;20020;-77
2023/07/13 06:56:11;;;;;;;1999.90;999.90;;;;;;;23.39;100.00;97835.88;5093720;28;20119;-74
2023/07/13 06:58:37;;;;;;;1999.90;999.90;;;;;;;23.37;100.00;97835.41;5092422;28;20024;-75
2023/07/13 07:01:04;;;;;;;1999.90;999.90;;;;;;;23.68;100.00;97830.56;5093673;28;20370;-76
2023/07/13 07:03:29;;;;;;;1999.90;999.90;;;;;;;23.96;100.00;97828.03;5093583;28;20060;-75
2023/07/13 07:06:01;;;;;;;1999.90;999.90;;;;;;;24.10;100.00;97833.72;5093607;28;20032;-75
2023/07/13 07:08:26;;;;;;;1999.90;999.90;;;;;;;24.23;100.00;97840.66;5096200;28;20103;-75
2023/07/13 07:10:53;;;;;;;1999.90;999.90;;;;;;;24.39;100.00;97827.19;5095742;28;20115;-75
2023/07/13 07:13:19;;;;;;;1999.90;999.90;;;;;;;24.64;100.00;97835.75;5093600;28;20035;-75
2023/07/13 07:15:44;;;;;;;1999.90;999.90;;;;;;;24.92;100.00;97826.72;5093342;28;20017;-75
2023/07/13 07:18:10;;;;;;;1999.90;999.90;;;;;;;24.96;100.00;97827.56;5092149;28;20112;-75
2023/07/13 07:20:35;;;;;;;1999.90;999.90;;;;;;;25.25;100.00;97829.25;5092457;28;20119;-75
2023/07/13 07:23:01;;;;;;;1999.90;999.90;;;;;;;25.45;100.00;97838.13;5093244;28;20024;-75
2023/07/13 07:25:26;;;;;;;1999.90;999.90;;;;;;;25.64;100.00;97840.59;5091871;28;20031;-75
2023/07/13 07:27:51;;;;;;;1999.90;999.90;;;;;;;26.00;100.00;97849.88;5092166;28;20032;-75
2023/07/13 07:30:17;;;;;;;1999.90;999.90;;;;;;;25.85;100.00;97846.25;5093330;28;20047;-75
2023/07/13 07:32:42;;;;;;;1999.90;999.90;;;;;;;25.87;100.00;97843.06;5091631;28;20373;-76
2023/07/13 07:35:08;;;;;;;1999.90;999.90;;;;;;;26.47;100.00;97848.69;5092118;28;20429;-74
2023/07/13 07:37:33;;;;;;;1999.90;999.90;;;;;;;26.27;100.00;97845.50;5093194;28;20039;-76
2023/07/13 07:39:59;;;;;;;1999.90;999.90;;;;;;;26.39;100.00;97842.28;5091590;28;20459;-75
2023/07/13 07:42:25;;;;;;;1999.90;999.90;;;;;;;26.58;100.00;97839.03;5093066;28;20043;-74
2023/07/13 07:44:50;;;;;;;1999.90;999.90;;;;;;;26.68;100.00;97840.22;5093267;28;20370;-74
2023/07/13 07:47:15;;;;;;;1999.90;999.90;;;;;;;26.25;100.00;97831.06;5091771;28;20103;-75
2023/07/13 07:49:41;;;;;;;1999.90;999.90;;;;;;;26.04;100.00;97819.81;5091469;28;20111;-75
2023/07/13 07:52:07;;;;;;;1999.90;999.90;;;;;;;26.10;100.00;97819.00;5092819;28;20064;-75
2023/07/13 07:54:32;;;;;;;1999.90;999.90;;;;;;;25.70;100.00;97812.97;5092883;28;20085;-74
2023/07/13 07:56:58;;;;;;;1999.90;999.90;;;;;;;26.53;100.00;97833.81;5093160;28;20032;-76
2023/07/13 07:59:24;;;;;;;1999.90;999.90;;;;;;;26.68;100.00;97836.63;5095569;28;20547;-77
2023/07/13 08:01:50;;;;;;;1999.90;999.90;;;;;;;26.46;100.00;97831.06;5092716;28;20115;-75
2023/07/13 08:04:16;;;;;;;1999.90;999.90;;;;;;;26.46;100.00;97835.84;5093073;28;20031;-76
2023/07/13 08:06:41;;;;;;;1999.90;999.90;;;;;;;26.50;100.00;97831.81;5092595;28;20028;-75
2023/07/13 08:09:07;;;;;;;1999.90;999.90;;;;;;;26.13;100.00;97822.22;5090985;28;20020;-75
2023/07/13 08:11:33;;;;;;;1999.90;999.90;;;;;;;25.88;100.00;97830.63;5092747;28;20031;-74
2023/07/13 08:13:58;;;;;;;1999.90;999.90;;;;;;;26.32;100.00;97836.66;5092290;28;20020;-75
2023/07/13 08:16:24;;;;;;;1999.90;999.90;;;;;;;25.91;100.00;97839.03;5091306;28;20032;-75
2023/07/13 08:18:50;;;;;;;1999.90;999.90;;;;;;;25.94;100.00;97845.84;5092298;28;20024;-77
2023/07/13 08:21:15;;;;;;;1999.90;999.90;;;;;;;25.92;100.00;97837.03;5090862;28;20128;-75
2023/07/13 08:23:40;;;;;;;1999.90;999.90;;;;;;;26.41;100.00;97856.69;5092054;28;20064;-75
2023/07/13 08:26:06;;;;;;;1999.90;999.90;;;;;;;26.06;100.00;97837.84;5091208;28;20055;-75
2023/07/13 08:28:33;;;;;;;1999.90;999.90;;;;;;;26.45;100.00;97831.44;5093268;28;20032;-75
2023/07/13 08:31:03;;;;;;;1999.90;999.90;;;;;;;26.72;100.00;97824.16;5093049;28;20040;-74
2023/07/13 08:33:29;;;;;;;1999.90;999.90;;;;;;;27.39;100.00;97832.38;5093225;28;20028;-75
2023/07/13 08:35:54;;;;;;;1999.90;999.90;;;;;;;27.10;100.00;97839.31;5095309;28;20104;-77
2023/07/13 08:38:19;;;;;;;1999.90;999.90;;;;;;;27.14;100.00;97840.91;5094741;28;20024;-74
2023/07/13 08:40:51;;;;;;;1999.90;999.90;;;;;;;27.11;100.00;97832.50;5093308;28;20028;-75
2023/07/13 08:43:22;;;;;;;1999.90;999.90;;;;;;;26.95;100.00;97840.56;5092757;28;20056;-74
2023/07/13 08:46:20;;;;;;;1999.90;999.90;;;;;;;26.86;100.00;97828.97;5091672;28;20175;-74
2023/07/13 08:49:02;;;;;;;1999.90;999.90;;;;;;;26.63;100.00;97812.56;5090849;28;20071;-76
2023/07/13 08:51:40;;;;;;;1999.90;999.90;;;;;;;27.49;100.00;97813.88;5091629;28;20101;-72
2023/07/13 08:54:31;;;;;;;1999.90;999.90;;;;;;;28.34;100.00;97821.72;5091779;28;20027;-73
2023/07/13 08:57:05;;;;;;;1999.90;999.90;;;;;;;28.92;100.00;97824.34;5090735;28;20024;-74
2023/07/13 08:59:34;;;;;;;1999.90;999.90;;;;;;;28.93;81.59;97822.31;5090572;28;20024;-74
2023/07/13 09:02:11;;;;;;;1999.90;999.90;;;;;;;28.31;78.99;97834.59;5075594;28;20492;-73
2023/07/13 09:04:49;;;;;;;1999.90;999.90;;;;;;;26.60;92.47;97839.44;5091296;28;20035;-76
2023/07/13 09:07:23;;;;;;;1999.90;999.90;;;;;;;26.06;91.93;97837.06;5091444;28;20024;-74
2023/07/13 09:10:12;;;;;;;1999.90;999.90;;;;;;;26.34;91.95;97839.88;5091873;28;20013;-74
2023/07/13 09:12:47;;;;;;;1999.90;999.90;;;;;;;26.18;94.27;97847.91;5079167;28;20151;-74
2023/07/13 09:15:24;;;;;;;1999.90;999.90;;;;;;;26.51;92.06;97852.28;5092334;28;20150;-74
2023/07/13 09:17:52;;;;;;;1999.90;999.90;;;;;;;26.28;94.28;97852.69;5093439;28;20024;-74
2023/07/13 09:20:46;;;;;;;1999.90;999.90;;;;;;;26.35;94.83;97855.50;5094847;28;20358;-77
2023/07/13 09:23:17;;;;;;;1999.90;999.90;;;;;;;26.32;94.90;97842.28;5094518;28;20031;-75
2023/07/13 09:25:45;;;;;;;1999.90;999.90;;;;;;;26.35;94.72;97846.28;5091345;28;20020;-75
2023/07/13 09:28:15;;;;;;;1999.90;999.90;;;;;;;26.16;95.45;97844.69;5090996;28;20018;-75
2023/07/13 09:31:01;;;;;;;1999.90;999.90;;;;;;;25.29;100.00;97841.28;5089199;28;20051;-76
2023/07/13 09:33:29;;;;;;;1999.90;999.90;;;;;;;25.75;100.00;97826.63;5091014;28;20381;-75
2023/07/13 09:35:55;;;;;;;1999.90;999.90;;;;;;;25.36;100.00;97812.50;5090984;28;20066;-75
2023/07/13 09:38:25;;;;;;;1999.90;999.90;;;;;;;25.72;100.00;97819.78;5091036;28;20024;-75
2023/07/13 09:41:15;;;;;;;1999.90;999.90;;;;;;;25.89;100.00;97829.44;5090641;28;20035;-77
2023/07/13 09:44:01;;;;;;;1999.90;999.90;;;;;;;25.84;100.00;97810.22;5091910;28;20484;-76
2023/07/13 09:46:26;;;;;;;1999.90;999.90;;;;;;;26.05;100.00;97815.81;5090703;28;20499;-74
2023/07/13 09:48:52;;;;;;;1999.90;999.90;;;;;;;25.39;100.00;97809.69;5090643;28;20062;-74
2023/07/13 09:51:18;;;;;;;1999.90;999.90;;;;;;;25.67;100.00;97825.00;5090609;28;20066;-75
2023/07/13 09:53:44;;;;;;;1999.90;999.90;;;;;;;26.06;100.00;97817.44;5090614;28;20035;-76
2023/07/13 09:56:21;;;;;;;1999.90;999.90;;;;;;;26.17;100.00;97823.84;5090822;28;20024;-74
2023/07/13 09:58:47;;;;;;;1999.90;999.90;;;;;;;26.36;100.00;97831.84;5093545;28;20051;-74
2023/07/13 10:01:13;;;;;;;1999.90;999.90;;;;;;;26.16;100.00;97827.84;5095349;28;20055;-75
2023/07/13 10:03:41;;;;;;;1999.90;999.90;;;;;;;25.98;100.00;97843.84;5093966;28;20115;-76
2023/07/13 10:06:19;;;;;;;1999.90;999.90;;;;;;;25.83;100.00;97845.84;5095192;28;20047;-76
2023/07/13 10:08:49;;;;;;;1999.90;999.90;;;;;;;25.50;100.00;97841.38;5093592;28;20047;-76
2023/07/13 10:11:29;;;;;;;1999.90;999.90;;;;;;;25.33;100.00;97830.09;5093383;28;20473;-75
2023/07/13 10:13:59;;;;;;;1999.90;999.90;;;;;;;25.24;100.00;97829.66;5094578;28;20049;-75
2023/07/13 10:16:27;;;;;;;1999.90;999.90;;;;;;;24.98;100.00;97825.97;5094645;28;20036;-76
2023/07/13 10:19:01;;;;;;;1999.90;999.90;;;;;;;24.72;100.00;97823.38;5094499;28;20489;-78
2023/07/13 10:21:31;;;;;;;1999.90;999.90;;;;;;;24.57;100.00;97815.31;5093236;28;20034;-75
2023/07/13 10:24:05;;;;;;;1999.90;999.90;;;;;;;24.68;100.00;97818.97;5094553;28;20039;-76
2023/07/13 10:26:34;;;;;;;1999.90;999.90;;;;;;;24.65;100.00;97823.38;5094342;28;20032;-78
2023/07/13 10:29:06;;;;;;;1999.90;999.90;;;;;;;24.62;100.00;97820.56;5094566;28;20527;-76
2023/07/13 10:31:34;;;;;;;1999.90;999.90;;;;;;;24.54;100.00;97822.50;5094236;28;20074;-77
2023/07/13 10:34:00;;;;;;;1999.90;999.90;;;;;;;24.56;100.00;97811.69;5094510;28;20126;-75
2023/07/13 10:36:34;;;;;;;1999.90;999.90;;;;;;;24.70;100.00;97803.41;5094063;28;20099;-77
2023/07/13 10:39:02;;;;;;;1999.90;999.90;;;;;;;24.88;100.00;97793.13;5094163;28;20052;-76
2023/07/13 10:41:33;;;;;;;1999.90;999.90;;;;;;;24.68;100.00;97783.41;5094380;28;20085;-76
2023/07/13 10:43:59;;;;;;;1999.90;999.90;;;;;;;24.49;100.00;97767.72;5094187;28;20439;-76
2023/07/13 10:46:28;;;;;;;1999.90;999.90;;;;;;;24.23;100.00;97773.56;5094051;28;20020;-76
2023/07/13 10:49:04;;;;;;;1999.90;999.90;;;;;;;24.32;100.00;97760.03;5092673;28;20043;-76